Airport View

Enter AWOS ICAO identifier for current METAR.

ex. KFNL

KLKR 251610Z AUTO 07005KT 10SM SCT008 SCT013 OVC049 21/20 A3000 RMK AO2

25 Oct 2020 16:13

Frequency: 120.825

Phone: 803-286-6444

Other Area AWOS: KDCM - KUZA - KEQY - KFDW

TAF AMD KCLT 251602Z 2516/2618 07007KT 5SM BR VCSH FEW006 BKN014 OVC050 TEMPO 2516/2518 2SM -RA BR BKN005 FM260300 03007KT 6SM BR FEW004 OVC007 FM261300 02005KT P6SM BKN009 OVC020